sensor_id;sensor_type;location;lat;lon;timestamp;temperature;humidity
54260;DHT22;40172;53.022;7.012;2022-09-01T00:01:27;13.40;99.90
54260;DHT22;40172;53.022;7.012;2022-09-01T00:03:54;13.60;99.90
54260;DHT22;40172;53.022;7.012;2022-09-01T00:06:22;13.30;99.90
54260;DHT22;40172;53.022;7.012;2022-09-01T00:08:53;13.30;99.90
54260;DHT22;40172;53.022;7.012;2022-09-01T00:11:19;13.30;99.90
54260;DHT22;40172;53.022;7.012;2022-09-01T00:13:46;13.30;99.90
54260;DHT22;40172;53.022;7.012;2022-09-01T00:16:13;13.90;99.90
54260;DHT22;40172;53.022;7.012;2022-09-01T00:18:42;13.20;99.90
54260;DHT22;40172;53.022;7.012;2022-09-01T00:21:09;13.20;99.90
54260;DHT22;40172;53.022;7.012;2022-09-01T00:23:36;13.10;99.90
54260;DHT22;40172;53.022;7.012;2022-09-01T00:26:02;13.10;99.90
54260;DHT22;40172;53.022;7.012;2022-09-01T00:28:27;13.10;99.90
54260;DHT22;40172;53.022;7.012;2022-09-01T00:30:53;13.10;99.90
54260;DHT22;40172;53.022;7.012;2022-09-01T00:33:19;13.60;99.90
54260;DHT22;40172;53.022;7.012;2022-09-01T00:35:44;13.10;99.90
54260;DHT22;40172;53.022;7.012;2022-09-01T00:38:10;13.60;99.90
54260;DHT22;40172;53.022;7.012;2022-09-01T00:40:36;13.30;99.90
54260;DHT22;40172;53.022;7.012;2022-09-01T00:43:15;13.00;99.90
54260;DHT22;40172;53.022;7.012;2022-09-01T00:45:41;13.00;99.90
54260;DHT22;40172;53.022;7.012;2022-09-01T00:48:07;12.90;99.90
54260;DHT22;40172;53.022;7.012;2022-09-01T00:50:34;12.90;99.90
54260;DHT22;40172;53.022;7.012;2022-09-01T00:53:01;12.90;99.90
54260;DHT22;40172;53.022;7.012;2022-09-01T00:55:30;12.90;99.90
54260;DHT22;40172;53.022;7.012;2022-09-01T00:57:59;12.80;99.90
54260;DHT22;40172;53.022;7.012;2022-09-01T01:00:28;12.80;99.90
54260;DHT22;40172;53.022;7.012;2022-09-01T01:02:54;12.80;99.90
54260;DHT22;40172;53.022;7.012;2022-09-01T01:05:42;13.00;99.90
54260;DHT22;40172;53.022;7.012;2022-09-01T01:08:11;12.80;99.90
54260;DHT22;40172;53.022;7.012;2022-09-01T01:10:39;12.80;99.90
54260;DHT22;40172;53.022;7.012;2022-09-01T01:13:09;12.70;99.90
54260;DHT22;40172;53.022;7.012;2022-09-01T01:15:34;12.70;99.90
54260;DHT22;40172;53.022;7.012;2022-09-01T01:18:01;12.70;99.90
54260;DHT22;40172;53.022;7.012;2022-09-01T01:20:29;12.70;99.90
54260;DHT22;40172;53.022;7.012;2022-09-01T01:23:26;12.60;99.90
54260;DHT22;40172;53.022;7.012;2022-09-01T01:25:59;12.60;99.90
54260;DHT22;40172;53.022;7.012;2022-09-01T01:28:29;12.60;99.90
54260;DHT22;40172;53.022;7.012;2022-09-01T01:31:02;12.60;99.90
54260;DHT22;40172;53.022;7.012;2022-09-01T01:33:35;12.50;99.90
54260;DHT22;40172;53.022;7.012;2022-09-01T01:36:07;12.50;99.90
54260;DHT22;40172;53.022;7.012;2022-09-01T01:38:39;12.40;99.90
54260;DHT22;40172;53.022;7.012;2022-09-01T01:41:08;12.40;99.90
54260;DHT22;40172;53.022;7.012;2022-09-01T01:43:35;12.40;99.90
54260;DHT22;40172;53.022;7.012;2022-09-01T01:46:03;12.60;99.90
54260;DHT22;40172;53.022;7.012;2022-09-01T01:48:30;12.30;99.90
54260;DHT22;40172;53.022;7.012;2022-09-01T01:51:00;12.30;99.90
54260;DHT22;40172;53.022;7.012;2022-09-01T01:53:26;12.50;99.90
54260;DHT22;40172;53.022;7.012;2022-09-01T01:55:52;12.20;99.90
54260;DHT22;40172;53.022;7.012;2022-09-01T01:58:20;12.20;99.90
54260;DHT22;40172;53.022;7.012;2022-09-01T02:00:48;12.20;99.90
54260;DHT22;40172;53.022;7.012;2022-09-01T02:03:15;12.20;99.90
54260;DHT22;40172;53.022;7.012;2022-09-01T02:05:44;12.10;99.90
54260;DHT22;40172;53.022;7.012;2022-09-01T02:08:12;12.20;99.90
54260;DHT22;40172;53.022;7.012;2022-09-01T02:10:42;12.20;99.90
54260;DHT22;40172;53.022;7.012;2022-09-01T02:13:11;12.20;99.90
54260;DHT22;40172;53.022;7.012;2022-09-01T02:15:46;12.10;99.90
54260;DHT22;40172;53.022;7.012;2022-09-01T02:18:15;12.10;99.90
54260;DHT22;40172;53.022;7.012;2022-09-01T02:20:43;12.10;99.90
54260;DHT22;40172;53.022;7.012;2022-09-01T02:23:10;12.10;99.90
54260;DHT22;40172;53.022;7.012;2022-09-01T02:25:42;12.10;99.90
54260;DHT22;40172;53.022;7.012;2022-09-01T02:28:11;12.10;99.90
54260;DHT22;40172;53.022;7.012;2022-09-01T02:30:45;12.10;99.90
54260;DHT22;40172;53.022;7.012;2022-09-01T02:33:14;12.00;99.90
54260;DHT22;40172;53.022;7.012;2022-09-01T02:35:44;12.00;99.90
54260;DHT22;40172;53.022;7.012;2022-09-01T02:38:10;12.50;99.90
54260;DHT22;40172;53.022;7.012;2022-09-01T02:40:41;12.00;99.90
54260;DHT22;40172;53.022;7.012;2022-09-01T02:43:10;12.00;99.90
54260;DHT22;40172;53.022;7.012;2022-09-01T02:45:37;12.00;99.90
54260;DHT22;40172;53.022;7.012;2022-09-01T02:48:04;12.00;99.90
54260;DHT22;40172;53.022;7.012;2022-09-01T02:50:37;12.10;99.90
54260;DHT22;40172;53.022;7.012;2022-09-01T02:53:04;12.10;99.90
54260;DHT22;40172;53.022;7.012;2022-09-01T02:55:35;12.10;99.90
54260;DHT22;40172;53.022;7.012;2022-09-01T02:58:00;12.10;99.90
54260;DHT22;40172;53.022;7.012;2022-09-01T03:00:26;12.20;99.90
54260;DHT22;40172;53.022;7.012;2022-09-01T03:02:59;12.10;99.90
54260;DHT22;40172;53.022;7.012;2022-09-01T03:05:27;12.20;99.90
54260;DHT22;40172;53.022;7.012;2022-09-01T03:08:03;12.20;99.90
54260;DHT22;40172;53.022;7.012;2022-09-01T03:10:33;12.20;99.90
54260;DHT22;40172;53.022;7.012;2022-09-01T03:13:02;13.00;99.90
54260;DHT22;40172;53.022;7.012;2022-09-01T03:15:29;12.10;99.90
54260;DHT22;40172;53.022;7.012;2022-09-01T03:17:55;12.10;99.90
54260;DHT22;40172;53.022;7.012;2022-09-01T03:20:22;13.00;99.90
54260;DHT22;40172;53.022;7.012;2022-09-01T03:22:49;12.60;99.90
54260;DHT22;40172;53.022;7.012;2022-09-01T03:25:16;12.00;99.90
54260;DHT22;40172;53.022;7.012;2022-09-01T03:27:43;12.00;99.90
54260;DHT22;40172;53.022;7.012;2022-09-01T03:30:09;12.00;99.90
54260;DHT22;40172;53.022;7.012;2022-09-01T03:32:35;12.00;99.90
54260;DHT22;40172;53.022;7.012;2022-09-01T03:35:02;12.00;99.90
54260;DHT22;40172;53.022;7.012;2022-09-01T03:37:28;11.90;99.90
54260;DHT22;40172;53.022;7.012;2022-09-01T03:39:53;11.90;99.90
54260;DHT22;40172;53.022;7.012;2022-09-01T03:42:19;11.90;99.90
54260;DHT22;40172;53.022;7.012;2022-09-01T03:44:47;11.80;99.90
54260;DHT22;40172;53.022;7.012;2022-09-01T03:47:14;11.80;99.90
54260;DHT22;40172;53.022;7.012;2022-09-01T03:49:41;11.80;99.90
54260;DHT22;40172;53.022;7.012;2022-09-01T03:52:08;11.90;99.90
54260;DHT22;40172;53.022;7.012;2022-09-01T03:54:36;11.80;99.90
54260;DHT22;40172;53.022;7.012;2022-09-01T03:57:02;11.80;99.90
54260;DHT22;40172;53.022;7.012;2022-09-01T03:59:30;11.80;99.90
54260;DHT22;40172;53.022;7.012;2022-09-01T04:01:58;11.80;99.90
54260;DHT22;40172;53.022;7.012;2022-09-01T04:04:24;11.80;99.90
54260;DHT22;40172;53.022;7.012;2022-09-01T04:06:50;11.90;99.90
54260;DHT22;40172;53.022;7.012;2022-09-01T04:09:16;11.80;99.90
54260;DHT22;40172;53.022;7.012;2022-09-01T04:11:41;11.80;99.90
54260;DHT22;40172;53.022;7.012;2022-09-01T04:14:11;11.80;99.90
54260;DHT22;40172;53.022;7.012;2022-09-01T04:16:37;11.80;99.90
54260;DHT22;40172;53.022;7.012;2022-09-01T04:19:24;11.80;99.90
54260;DHT22;40172;53.022;7.012;2022-09-01T04:21:53;11.90;99.90
54260;DHT22;40172;53.022;7.012;2022-09-01T04:24:20;11.80;99.90
54260;DHT22;40172;53.022;7.012;2022-09-01T04:26:48;11.90;99.90
54260;DHT22;40172;53.022;7.012;2022-09-01T04:29:19;11.90;99.90
54260;DHT22;40172;53.022;7.012;2022-09-01T04:31:52;11.90;99.90
54260;DHT22;40172;53.022;7.012;2022-09-01T04:34:19;11.90;99.90
54260;DHT22;40172;53.022;7.012;2022-09-01T04:36:47;11.90;99.90
54260;DHT22;40172;53.022;7.012;2022-09-01T04:39:13;11.90;99.90
54260;DHT22;40172;53.022;7.012;2022-09-01T04:41:42;11.90;99.90
54260;DHT22;40172;53.022;7.012;2022-09-01T04:44:11;11.90;99.90
54260;DHT22;40172;53.022;7.012;2022-09-01T04:46:39;11.90;99.90
54260;DHT22;40172;53.022;7.012;2022-09-01T04:49:11;11.90;99.90
54260;DHT22;40172;53.022;7.012;2022-09-01T04:51:43;11.90;99.90
54260;DHT22;40172;53.022;7.012;2022-09-01T04:54:10;12.50;99.90
54260;DHT22;40172;53.022;7.012;2022-09-01T04:56:40;11.90;99.90
54260;DHT22;40172;53.022;7.012;2022-09-01T04:59:06;12.00;99.90
54260;DHT22;40172;53.022;7.012;2022-09-01T05:01:34;12.60;99.90
54260;DHT22;40172;53.022;7.012;2022-09-01T05:04:21;12.00;99.90
54260;DHT22;40172;53.022;7.012;2022-09-01T05:06:49;12.10;99.90
54260;DHT22;40172;53.022;7.012;2022-09-01T05:09:17;12.10;99.90
54260;DHT22;40172;53.022;7.012;2022-09-01T05:11:43;12.10;99.90
54260;DHT22;40172;53.022;7.012;2022-09-01T05:14:13;12.20;99.90
54260;DHT22;40172;53.022;7.012;2022-09-01T05:16:39;13.00;99.90
54260;DHT22;40172;53.022;7.012;2022-09-01T05:19:08;12.20;99.90
54260;DHT22;40172;53.022;7.012;2022-09-01T05:21:41;12.20;99.90
54260;DHT22;40172;53.022;7.012;2022-09-01T05:24:13;12.30;99.90
54260;DHT22;40172;53.022;7.012;2022-09-01T05:26:39;12.30;99.90
54260;DHT22;40172;53.022;7.012;2022-09-01T05:29:08;12.30;99.90
54260;DHT22;40172;53.022;7.012;2022-09-01T05:31:44;12.30;99.90
54260;DHT22;40172;53.022;7.012;2022-09-01T05:34:11;12.30;99.90
54260;DHT22;40172;53.022;7.012;2022-09-01T05:36:41;12.30;99.90
54260;DHT22;40172;53.022;7.012;2022-09-01T05:39:07;12.30;99.90
54260;DHT22;40172;53.022;7.012;2022-09-01T05:41:35;12.30;99.90
54260;DHT22;40172;53.022;7.012;2022-09-01T05:44:03;12.30;99.90
54260;DHT22;40172;53.022;7.012;2022-09-01T05:46:33;12.40;99.90
54260;DHT22;40172;53.022;7.012;2022-09-01T05:48:59;12.40;99.90
54260;DHT22;40172;53.022;7.012;2022-09-01T05:51:26;12.40;99.90
54260;DHT22;40172;53.022;7.012;2022-09-01T05:53:54;12.50;99.90
54260;DHT22;40172;53.022;7.012;2022-09-01T05:56:24;12.50;99.90
54260;DHT22;40172;53.022;7.012;2022-09-01T05:58:50;12.60;99.90
54260;DHT22;40172;53.022;7.012;2022-09-01T06:01:22;12.70;99.90
54260;DHT22;40172;53.022;7.012;2022-09-01T06:03:49;12.80;99.90
54260;DHT22;40172;53.022;7.012;2022-09-01T06:06:23;13.00;99.90
54260;DHT22;40172;53.022;7.012;2022-09-01T06:08:50;13.20;99.90
54260;DHT22;40172;53.022;7.012;2022-09-01T06:11:16;13.30;99.90
54260;DHT22;40172;53.022;7.012;2022-09-01T06:13:43;13.50;99.90
54260;DHT22;40172;53.022;7.012;2022-09-01T06:16:14;13.70;99.90
54260;DHT22;40172;53.022;7.012;2022-09-01T06:18:41;13.90;99.90
54260;DHT22;40172;53.022;7.012;2022-09-01T06:21:09;13.90;99.90
54260;DHT22;40172;53.022;7.012;2022-09-01T06:23:40;14.50;99.90
54260;DHT22;40172;53.022;7.012;2022-09-01T06:26:14;14.10;99.90
54260;DHT22;40172;53.022;7.012;2022-09-01T06:28:41;14.30;99.90
54260;DHT22;40172;53.022;7.012;2022-09-01T06:31:07;14.20;99.90
54260;DHT22;40172;53.022;7.012;2022-09-01T06:33:34;14.30;99.90
54260;DHT22;40172;53.022;7.012;2022-09-01T06:36:01;14.40;99.90
54260;DHT22;40172;53.022;7.012;2022-09-01T06:38:28;14.40;99.90
54260;DHT22;40172;53.022;7.012;2022-09-01T06:41:05;14.50;99.90
54260;DHT22;40172;53.022;7.012;2022-09-01T06:43:40;14.60;99.90
54260;DHT22;40172;53.022;7.012;2022-09-01T06:46:07;14.60;99.90
54260;DHT22;40172;53.022;7.012;2022-09-01T06:48:35;14.70;99.90
54260;DHT22;40172;53.022;7.012;2022-09-01T06:51:04;14.80;99.90
54260;DHT22;40172;53.022;7.012;2022-09-01T06:53:30;14.90;99.90
54260;DHT22;40172;53.022;7.012;2022-09-01T06:55:56;15.00;99.90
54260;DHT22;40172;53.022;7.012;2022-09-01T06:58:22;15.10;99.90
54260;DHT22;40172;53.022;7.012;2022-09-01T07:00:50;15.10;99.90
54260;DHT22;40172;53.022;7.012;2022-09-01T07:03:17;15.20;99.90
54260;DHT22;40172;53.022;7.012;2022-09-01T07:05:45;15.30;99.90
54260;DHT22;40172;53.022;7.012;2022-09-01T07:08:14;15.40;99.90
54260;DHT22;40172;53.022;7.012;2022-09-01T07:10:46;15.50;99.90
54260;DHT22;40172;53.022;7.012;2022-09-01T07:13:14;15.60;99.90
54260;DHT22;40172;53.022;7.012;2022-09-01T07:15:45;15.70;99.90
54260;DHT22;40172;53.022;7.012;2022-09-01T07:18:18;15.80;99.90
54260;DHT22;40172;53.022;7.012;2022-09-01T07:20:46;15.90;99.90
54260;DHT22;40172;53.022;7.012;2022-09-01T07:23:14;16.00;99.90
54260;DHT22;40172;53.022;7.012;2022-09-01T07:25:43;16.10;99.90
54260;DHT22;40172;53.022;7.012;2022-09-01T07:28:11;16.20;99.90
54260;DHT22;40172;53.022;7.012;2022-09-01T07:30:46;16.40;99.90
54260;DHT22;40172;53.022;7.012;2022-09-01T07:33:14;16.50;99.90
54260;DHT22;40172;53.022;7.012;2022-09-01T07:35:41;16.60;99.90
54260;DHT22;40172;53.022;7.012;2022-09-01T07:38:08;16.70;99.90
54260;DHT22;40172;53.022;7.012;2022-09-01T07:40:39;16.80;99.90
54260;DHT22;40172;53.022;7.012;2022-09-01T07:43:14;16.80;99.90
54260;DHT22;40172;53.022;7.012;2022-09-01T07:45:43;16.90;99.90
54260;DHT22;40172;53.022;7.012;2022-09-01T07:48:12;17.00;99.90
54260;DHT22;40172;53.022;7.012;2022-09-01T07:50:42;17.20;99.90
54260;DHT22;40172;53.022;7.012;2022-09-01T07:53:13;17.30;99.90
54260;DHT22;40172;53.022;7.012;2022-09-01T07:55:44;17.40;99.90
54260;DHT22;40172;53.022;7.012;2022-09-01T07:58:11;17.50;99.90
54260;DHT22;40172;53.022;7.012;2022-09-01T08:00:39;17.50;99.90
54260;DHT22;40172;53.022;7.012;2022-09-01T08:03:04;17.60;99.90
54260;DHT22;40172;53.022;7.012;2022-09-01T08:05:30;17.60;99.90
54260;DHT22;40172;53.022;7.012;2022-09-01T08:07:56;17.70;99.90
54260;DHT22;40172;53.022;7.012;2022-09-01T08:10:22;17.80;99.90
54260;DHT22;40172;53.022;7.012;2022-09-01T08:12:48;17.90;99.90
54260;DHT22;40172;53.022;7.012;2022-09-01T08:15:15;17.80;99.90
54260;DHT22;40172;53.022;7.012;2022-09-01T08:17:42;18.00;99.90
54260;DHT22;40172;53.022;7.012;2022-09-01T08:20:08;18.10;99.90
54260;DHT22;40172;53.022;7.012;2022-09-01T08:22:35;18.20;99.90
54260;DHT22;40172;53.022;7.012;2022-09-01T08:25:05;18.30;99.90
54260;DHT22;40172;53.022;7.012;2022-09-01T08:27:32;18.40;99.90
54260;DHT22;40172;53.022;7.012;2022-09-01T08:30:04;18.50;99.90
54260;DHT22;40172;53.022;7.012;2022-09-01T08:32:30;18.60;99.90
54260;DHT22;40172;53.022;7.012;2022-09-01T08:34:56;18.70;99.90
54260;DHT22;40172;53.022;7.012;2022-09-01T08:37:22;18.80;99.90
54260;DHT22;40172;53.022;7.012;2022-09-01T08:39:48;18.90;99.90
54260;DHT22;40172;53.022;7.012;2022-09-01T08:47:38;19.20;99.90
54260;DHT22;40172;53.022;7.012;2022-09-01T08:50:04;19.30;99.90
54260;DHT22;40172;53.022;7.012;2022-09-01T08:52:34;19.40;99.90
54260;DHT22;40172;53.022;7.012;2022-09-01T08:55:21;19.60;99.90
54260;DHT22;40172;53.022;7.012;2022-09-01T08:57:53;19.70;99.90
54260;DHT22;40172;53.022;7.012;2022-09-01T09:00:30;19.90;99.90
54260;DHT22;40172;53.022;7.012;2022-09-01T09:06:01;20.10;99.90
54260;DHT22;40172;53.022;7.012;2022-09-01T09:08:54;20.10;99.90
54260;DHT22;40172;53.022;7.012;2022-09-01T09:11:45;20.20;99.90
54260;DHT22;40172;53.022;7.012;2022-09-01T09:17:12;20.40;99.90
54260;DHT22;40172;53.022;7.012;2022-09-01T09:19:41;20.50;99.90
54260;DHT22;40172;53.022;7.012;2022-09-01T09:22:11;20.60;99.90
54260;DHT22;40172;53.022;7.012;2022-09-01T09:27:26;20.90;99.90
54260;DHT22;40172;53.022;7.012;2022-09-01T09:30:19;20.90;99.90
54260;DHT22;40172;53.022;7.012;2022-09-01T09:32:55;20.90;99.90
54260;DHT22;40172;53.022;7.012;2022-09-01T09:35:37;20.90;99.80
54260;DHT22;40172;53.022;7.012;2022-09-01T09:43:23;21.20;98.70
54260;DHT22;40172;53.022;7.012;2022-09-01T09:45:49;21.30;98.70
54260;DHT22;40172;53.022;7.012;2022-09-01T09:48:30;21.40;97.90
54260;DHT22;40172;53.022;7.012;2022-09-01T09:51:15;21.40;97.00
54260;DHT22;40172;53.022;7.012;2022-09-01T09:53:41;21.50;96.20
54260;DHT22;40172;53.022;7.012;2022-09-01T09:56:19;21.50;95.40
54260;DHT22;40172;53.022;7.012;2022-09-01T09:58:46;21.60;95.70
54260;DHT22;40172;53.022;7.012;2022-09-01T10:03:56;21.80;91.50
54260;DHT22;40172;53.022;7.012;2022-09-01T10:06:43;21.70;91.60
54260;DHT22;40172;53.022;7.012;2022-09-01T10:11:51;21.80;90.20
54260;DHT22;40172;53.022;7.012;2022-09-01T10:14:32;21.80;89.80
54260;DHT22;40172;53.022;7.012;2022-09-01T10:17:08;21.90;85.50
54260;DHT22;40172;53.022;7.012;2022-09-01T10:19:35;22.00;87.00
54260;DHT22;40172;53.022;7.012;2022-09-01T10:22:04;22.00;88.20
54260;DHT22;40172;53.022;7.012;2022-09-01T10:24:35;22.10;86.60
54260;DHT22;40172;53.022;7.012;2022-09-01T10:27:06;22.20;84.50
54260;DHT22;40172;53.022;7.012;2022-09-01T10:32:48;22.30;82.40
54260;DHT22;40172;53.022;7.012;2022-09-01T10:37:49;22.20;81.20
54260;DHT22;40172;53.022;7.012;2022-09-01T10:43:26;22.10;79.80
54260;DHT22;40172;53.022;7.012;2022-09-01T10:45:54;22.20;80.60
54260;DHT22;40172;53.022;7.012;2022-09-01T10:50:47;22.40;77.90
54260;DHT22;40172;53.022;7.012;2022-09-01T10:56:39;22.40;75.60
54260;DHT22;40172;53.022;7.012;2022-09-01T11:04:19;22.70;75.10
54260;DHT22;40172;53.022;7.012;2022-09-01T11:07:03;22.80;74.30
54260;DHT22;40172;53.022;7.012;2022-09-01T13:18:38;22.90;69.00
54260;DHT22;40172;53.022;7.012;2022-09-01T13:21:05;22.90;69.40
54260;DHT22;40172;53.022;7.012;2022-09-01T13:23:31;22.80;69.20
54260;DHT22;40172;53.022;7.012;2022-09-01T13:25:57;22.80;68.00
54260;DHT22;40172;53.022;7.012;2022-09-01T13:28:26;22.80;68.40
54260;DHT22;40172;53.022;7.012;2022-09-01T13:30:59;22.90;68.40
54260;DHT22;40172;53.022;7.012;2022-09-01T13:33:26;22.90;67.00
54260;DHT22;40172;53.022;7.012;2022-09-01T13:35:53;23.00;66.60
54260;DHT22;40172;53.022;7.012;2022-09-01T13:38:19;23.00;66.10
54260;DHT22;40172;53.022;7.012;2022-09-01T13:40:46;22.90;65.70
54260;DHT22;40172;53.022;7.012;2022-09-01T13:43:17;23.20;66.80
54260;DHT22;40172;53.022;7.012;2022-09-01T13:45:44;22.80;66.30
54260;DHT22;40172;53.022;7.012;2022-09-01T13:48:10;22.80;66.00
54260;DHT22;40172;53.022;7.012;2022-09-01T13:50:37;22.90;66.70
54260;DHT22;40172;53.022;7.012;2022-09-01T13:53:03;22.90;65.60
54260;DHT22;40172;53.022;7.012;2022-09-01T13:55:32;22.90;65.80
54260;DHT22;40172;53.022;7.012;2022-09-01T13:57:58;22.80;65.50
54260;DHT22;40172;53.022;7.012;2022-09-01T14:00:28;22.70;65.40
54260;DHT22;40172;53.022;7.012;2022-09-01T14:02:56;22.70;65.10
54260;DHT22;40172;53.022;7.012;2022-09-01T14:05:25;22.80;65.10
54260;DHT22;40172;53.022;7.012;2022-09-01T14:07:51;22.80;64.30
54260;DHT22;40172;53.022;7.012;2022-09-01T14:10:19;22.80;64.20
54260;DHT22;40172;53.022;7.012;2022-09-01T14:12:45;22.70;65.30
54260;DHT22;40172;53.022;7.012;2022-09-01T14:15:13;22.70;65.40
54260;DHT22;40172;53.022;7.012;2022-09-01T14:17:39;22.90;64.30
54260;DHT22;40172;53.022;7.012;2022-09-01T14:20:07;23.30;64.10
54260;DHT22;40172;53.022;7.012;2022-09-01T14:22:34;23.10;62.90
54260;DHT22;40172;53.022;7.012;2022-09-01T14:25:00;23.30;62.90
54260;DHT22;40172;53.022;7.012;2022-09-01T14:27:25;23.40;63.30
54260;DHT22;40172;53.022;7.012;2022-09-01T14:29:51;23.50;63.10
54260;DHT22;40172;53.022;7.012;2022-09-01T14:32:18;23.70;62.50
54260;DHT22;40172;53.022;7.012;2022-09-01T14:34:47;23.70;61.60
54260;DHT22;40172;53.022;7.012;2022-09-01T14:37:12;23.60;61.40
54260;DHT22;40172;53.022;7.012;2022-09-01T14:39:38;23.40;60.60
54260;DHT22;40172;53.022;7.012;2022-09-01T14:42:04;23.20;60.70
54260;DHT22;40172;53.022;7.012;2022-09-01T14:44:37;23.10;61.00
54260;DHT22;40172;53.022;7.012;2022-09-01T14:47:03;23.00;61.70
54260;DHT22;40172;53.022;7.012;2022-09-01T14:49:31;23.00;61.20
54260;DHT22;40172;53.022;7.012;2022-09-01T14:52:03;23.00;61.60
54260;DHT22;40172;53.022;7.012;2022-09-01T14:54:30;23.00;61.90
54260;DHT22;40172;53.022;7.012;2022-09-01T14:56:56;23.10;62.20
54260;DHT22;40172;53.022;7.012;2022-09-01T14:59:21;23.10;61.70
54260;DHT22;40172;53.022;7.012;2022-09-01T15:01:47;23.10;61.40
54260;DHT22;40172;53.022;7.012;2022-09-01T15:04:12;23.20;60.90
54260;DHT22;40172;53.022;7.012;2022-09-01T15:06:38;23.20;60.70
54260;DHT22;40172;53.022;7.012;2022-09-01T15:09:04;23.20;60.30
54260;DHT22;40172;53.022;7.012;2022-09-01T15:11:30;23.20;59.60
54260;DHT22;40172;53.022;7.012;2022-09-01T15:13:55;23.30;59.40
54260;DHT22;40172;53.022;7.012;2022-09-01T15:16:23;23.40;59.60
54260;DHT22;40172;53.022;7.012;2022-09-01T15:18:50;23.80;59.40
54260;DHT22;40172;53.022;7.012;2022-09-01T15:21:22;23.10;57.80
54260;DHT22;40172;53.022;7.012;2022-09-01T15:23:48;23.50;56.70
54260;DHT22;40172;53.022;7.012;2022-09-01T15:26:15;23.50;56.90
54260;DHT22;40172;53.022;7.012;2022-09-01T15:28:45;23.50;57.50
54260;DHT22;40172;53.022;7.012;2022-09-01T15:31:14;23.50;57.70
54260;DHT22;40172;53.022;7.012;2022-09-01T15:33:40;23.50;57.90
54260;DHT22;40172;53.022;7.012;2022-09-01T15:36:07;23.40;58.00
54260;DHT22;40172;53.022;7.012;2022-09-01T15:38:33;23.40;57.80
54260;DHT22;40172;53.022;7.012;2022-09-01T15:40:59;23.40;57.80
54260;DHT22;40172;53.022;7.012;2022-09-01T15:43:29;23.40;58.50
54260;DHT22;40172;53.022;7.012;2022-09-01T15:45:57;23.40;57.90
54260;DHT22;40172;53.022;7.012;2022-09-01T15:48:23;23.50;57.90
54260;DHT22;40172;53.022;7.012;2022-09-01T15:50:49;23.50;57.50
54260;DHT22;40172;53.022;7.012;2022-09-01T15:53:15;23.60;57.50
54260;DHT22;40172;53.022;7.012;2022-09-01T15:55:43;23.50;57.20
54260;DHT22;40172;53.022;7.012;2022-09-01T15:58:10;23.40;57.50
54260;DHT22;40172;53.022;7.012;2022-09-01T16:00:37;23.30;58.10
54260;DHT22;40172;53.022;7.012;2022-09-01T16:03:04;23.10;58.50
54260;DHT22;40172;53.022;7.012;2022-09-01T16:05:32;23.00;59.00
54260;DHT22;40172;53.022;7.012;2022-09-01T16:07:58;23.00;59.00
54260;DHT22;40172;53.022;7.012;2022-09-01T16:10:27;23.00;59.20
54260;DHT22;40172;53.022;7.012;2022-09-01T16:12:53;23.00;59.20
54260;DHT22;40172;53.022;7.012;2022-09-01T16:15:21;23.10;59.20
54260;DHT22;40172;53.022;7.012;2022-09-01T16:17:56;23.20;58.90
54260;DHT22;40172;53.022;7.012;2022-09-01T16:20:33;23.20;58.50
54260;DHT22;40172;53.022;7.012;2022-09-01T16:23:18;23.20;58.30
54260;DHT22;40172;53.022;7.012;2022-09-01T16:25:46;23.30;58.30
54260;DHT22;40172;53.022;7.012;2022-09-01T16:28:25;23.30;58.40
54260;DHT22;40172;53.022;7.012;2022-09-01T16:30:55;23.40;57.80
54260;DHT22;40172;53.022;7.012;2022-09-01T16:33:22;23.60;57.80
54260;DHT22;40172;53.022;7.012;2022-09-01T16:36:22;23.80;57.50
54260;DHT22;40172;53.022;7.012;2022-09-01T16:38:51;24.20;55.60
54260;DHT22;40172;53.022;7.012;2022-09-01T16:41:40;24.70;54.80
54260;DHT22;40172;53.022;7.012;2022-09-01T16:52:14;26.30;51.60
54260;DHT22;40172;53.022;7.012;2022-09-01T16:57:42;26.90;50.70
54260;DHT22;40172;53.022;7.012;2022-09-01T17:00:11;27.20;49.90
54260;DHT22;40172;53.022;7.012;2022-09-01T17:03:00;27.40;50.30
54260;DHT22;40172;53.022;7.012;2022-09-01T17:05:40;27.60;49.10
54260;DHT22;40172;53.022;7.012;2022-09-01T17:08:12;27.80;48.90
54260;DHT22;40172;53.022;7.012;2022-09-01T17:13:31;27.90;48.80
54260;DHT22;40172;53.022;7.012;2022-09-01T17:16:09;27.90;48.30
54260;DHT22;40172;53.022;7.012;2022-09-01T17:18:48;27.80;48.70
54260;DHT22;40172;53.022;7.012;2022-09-01T17:21:19;27.70;48.90
54260;DHT22;40172;53.022;7.012;2022-09-01T17:23:59;27.50;48.90
54260;DHT22;40172;53.022;7.012;2022-09-01T17:26:29;27.60;48.30
54260;DHT22;40172;53.022;7.012;2022-09-01T17:29:19;27.50;49.40
54260;DHT22;40172;53.022;7.012;2022-09-01T17:34:35;27.40;49.10
54260;DHT22;40172;53.022;7.012;2022-09-01T17:37:32;27.30;49.60
54260;DHT22;40172;53.022;7.012;2022-09-01T17:40:33;27.10;50.20
54260;DHT22;40172;53.022;7.012;2022-09-01T17:46:01;26.80;50.20
54260;DHT22;40172;53.022;7.012;2022-09-01T17:48:42;26.50;50.10
54260;DHT22;40172;53.022;7.012;2022-09-01T17:51:32;26.00;50.40
54260;DHT22;40172;53.022;7.012;2022-09-01T17:57:01;24.70;52.80
54260;DHT22;40172;53.022;7.012;2022-09-01T17:59:43;23.90;53.90
54260;DHT22;40172;53.022;7.012;2022-09-01T18:02:33;23.20;55.40
54260;DHT22;40172;53.022;7.012;2022-09-01T18:05:15;22.60;56.50
54260;DHT22;40172;53.022;7.012;2022-09-01T18:07:50;22.00;57.80
54260;DHT22;40172;53.022;7.012;2022-09-01T18:10:25;21.60;58.30
54260;DHT22;40172;53.022;7.012;2022-09-01T18:12:59;21.30;59.10
54260;DHT22;40172;53.022;7.012;2022-09-01T18:15:26;21.00;59.90
54260;DHT22;40172;53.022;7.012;2022-09-01T18:18:05;20.70;60.40
54260;DHT22;40172;53.022;7.012;2022-09-01T18:20:43;20.90;61.30
54260;DHT22;40172;53.022;7.012;2022-09-01T18:23:15;20.20;61.60
54260;DHT22;40172;53.022;7.012;2022-09-01T18:25:52;20.00;62.10
54260;DHT22;40172;53.022;7.012;2022-09-01T18:28:19;19.90;62.70
54260;DHT22;40172;53.022;7.012;2022-09-01T18:30:59;19.60;63.00
54260;DHT22;40172;53.022;7.012;2022-09-01T18:33:57;19.50;63.80
54260;DHT22;40172;53.022;7.012;2022-09-01T18:39:23;19.20;64.90
54260;DHT22;40172;53.022;7.012;2022-09-01T18:42:11;19.00;65.40
54260;DHT22;40172;53.022;7.012;2022-09-01T18:47:29;18.70;66.30
54260;DHT22;40172;53.022;7.012;2022-09-01T18:50:36;18.60;66.90
54260;DHT22;40172;53.022;7.012;2022-09-01T18:55:49;18.30;67.40
54260;DHT22;40172;53.022;7.012;2022-09-01T18:58:43;18.30;68.20
54260;DHT22;40172;53.022;7.012;2022-09-01T19:01:20;18.20;68.50
54260;DHT22;40172;53.022;7.012;2022-09-01T19:03:58;18.00;68.70
54260;DHT22;40172;53.022;7.012;2022-09-01T19:10:07;17.80;69.80
54260;DHT22;40172;53.022;7.012;2022-09-01T19:18:29;17.60;73.40
54260;DHT22;40172;53.022;7.012;2022-09-01T19:21:23;17.50;74.70
54260;DHT22;40172;53.022;7.012;2022-09-01T19:23:51;17.40;77.20